sensor_id;sensor_type;location;lat;lon;timestamp;temperature;humidity
2489;DHT22;1255;48.716;9.124;2023-02-28T00:01:03;-2.20;94.70
2489;DHT22;1255;48.716;9.124;2023-02-28T00:03:30;-2.30;94.70
2489;DHT22;1255;48.716;9.124;2023-02-28T00:06:00;-2.30;94.90
2489;DHT22;1255;48.716;9.124;2023-02-28T00:08:27;-2.30;94.90
2489;DHT22;1255;48.716;9.124;2023-02-28T00:10:55;-2.40;94.90
2489;DHT22;1255;48.716;9.124;2023-02-28T00:13:22;-2.30;95.10
2489;DHT22;1255;48.716;9.124;2023-02-28T00:15:59;-2.30;95.10
2489;DHT22;1255;48.716;9.124;2023-02-28T00:18:25;-2.40;95.20
2489;DHT22;1255;48.716;9.124;2023-02-28T00:20:52;-2.40;95.30
2489;DHT22;1255;48.716;9.124;2023-02-28T00:23:19;-2.40;95.40
2489;DHT22;1255;48.716;9.124;2023-02-28T00:25:45;-2.50;95.50
2489;DHT22;1255;48.716;9.124;2023-02-28T00:28:13;-2.50;95.60
2489;DHT22;1255;48.716;9.124;2023-02-28T00:30:40;-2.50;95.60
2489;DHT22;1255;48.716;9.124;2023-02-28T00:33:07;-2.50;95.70
2489;DHT22;1255;48.716;9.124;2023-02-28T00:35:34;-2.50;95.70
2489;DHT22;1255;48.716;9.124;2023-02-28T00:38:00;-2.50;95.70
2489;DHT22;1255;48.716;9.124;2023-02-28T00:40:27;-2.50;95.70
2489;DHT22;1255;48.716;9.124;2023-02-28T00:42:54;-2.60;95.90
2489;DHT22;1255;48.716;9.124;2023-02-28T00:45:22;-2.60;95.90
2489;DHT22;1255;48.716;9.124;2023-02-28T00:47:49;-2.60;96.00
2489;DHT22;1255;48.716;9.124;2023-02-28T00:50:16;-2.60;96.10
2489;DHT22;1255;48.716;9.124;2023-02-28T00:52:43;-2.60;96.10
2489;DHT22;1255;48.716;9.124;2023-02-28T00:55:10;-2.60;96.20
2489;DHT22;1255;48.716;9.124;2023-02-28T00:57:36;-2.70;96.30
2489;DHT22;1255;48.716;9.124;2023-02-28T01:00:04;-2.70;96.40
2489;DHT22;1255;48.716;9.124;2023-02-28T01:02:33;-2.70;96.40
2489;DHT22;1255;48.716;9.124;2023-02-28T01:05:00;-2.70;96.50
2489;DHT22;1255;48.716;9.124;2023-02-28T01:07:26;-2.70;96.50
2489;DHT22;1255;48.716;9.124;2023-02-28T01:09:53;-2.70;96.50
2489;DHT22;1255;48.716;9.124;2023-02-28T01:12:20;-2.60;96.70
2489;DHT22;1255;48.716;9.124;2023-02-28T01:14:46;-2.60;96.70
2489;DHT22;1255;48.716;9.124;2023-02-28T01:17:13;-2.60;96.60
2489;DHT22;1255;48.716;9.124;2023-02-28T01:19:41;-2.70;96.80
2489;DHT22;1255;48.716;9.124;2023-02-28T01:22:08;-2.70;96.80
2489;DHT22;1255;48.716;9.124;2023-02-28T01:24:34;-2.70;96.90
2489;DHT22;1255;48.716;9.124;2023-02-28T01:27:01;-2.70;97.00
2489;DHT22;1255;48.716;9.124;2023-02-28T01:29:28;-2.70;97.10
2489;DHT22;1255;48.716;9.124;2023-02-28T01:31:55;-2.70;97.20
2489;DHT22;1255;48.716;9.124;2023-02-28T01:34:22;-2.70;97.30
2489;DHT22;1255;48.716;9.124;2023-02-28T01:36:50;-2.70;97.30
2489;DHT22;1255;48.716;9.124;2023-02-28T01:39:17;-2.80;97.40
2489;DHT22;1255;48.716;9.124;2023-02-28T01:41:43;-2.70;97.50
2489;DHT22;1255;48.716;9.124;2023-02-28T01:47:10;-2.80;97.70
2489;DHT22;1255;48.716;9.124;2023-02-28T01:49:37;-2.90;97.80
2489;DHT22;1255;48.716;9.124;2023-02-28T01:52:06;-2.90;98.10
2489;DHT22;1255;48.716;9.124;2023-02-28T01:54:34;-2.90;98.40
2489;DHT22;1255;48.716;9.124;2023-02-28T01:57:04;-2.90;98.20
2489;DHT22;1255;48.716;9.124;2023-02-28T01:59:35;-2.80;98.40
2489;DHT22;1255;48.716;9.124;2023-02-28T02:02:02;-2.80;98.40
2489;DHT22;1255;48.716;9.124;2023-02-28T02:04:37;-2.80;98.40
2489;DHT22;1255;48.716;9.124;2023-02-28T02:07:06;-2.80;98.50
2489;DHT22;1255;48.716;9.124;2023-02-28T02:09:33;-2.70;98.70
2489;DHT22;1255;48.716;9.124;2023-02-28T02:12:03;-2.80;98.70
2489;DHT22;1255;48.716;9.124;2023-02-28T02:14:40;-2.80;98.90
2489;DHT22;1255;48.716;9.124;2023-02-28T02:17:17;-2.80;99.10
2489;DHT22;1255;48.716;9.124;2023-02-28T02:20:11;-2.80;99.20
2489;DHT22;1255;48.716;9.124;2023-02-28T02:25:45;-2.80;99.20
2489;DHT22;1255;48.716;9.124;2023-02-28T02:28:35;-2.80;99.30
2489;DHT22;1255;48.716;9.124;2023-02-28T02:31:22;-2.80;99.40
2489;DHT22;1255;48.716;9.124;2023-02-28T02:34:26;-2.80;99.60
2489;DHT22;1255;48.716;9.124;2023-02-28T02:36:58;-2.80;99.70
2489;DHT22;1255;48.716;9.124;2023-02-28T02:39:32;-2.80;99.90
2489;DHT22;1255;48.716;9.124;2023-02-28T02:42:05;-2.70;99.90
2489;DHT22;1255;48.716;9.124;2023-02-28T02:44:42;-2.70;99.90
2489;DHT22;1255;48.716;9.124;2023-02-28T02:47:14;-2.70;99.90
2489;DHT22;1255;48.716;9.124;2023-02-28T02:49:46;-2.70;99.90
2489;DHT22;1255;48.716;9.124;2023-02-28T02:52:17;-2.60;99.90
2489;DHT22;1255;48.716;9.124;2023-02-28T02:54:46;-2.60;99.90
2489;DHT22;1255;48.716;9.124;2023-02-28T02:57:17;-2.60;99.90
2489;DHT22;1255;48.716;9.124;2023-02-28T02:59:48;-2.50;99.90
2489;DHT22;1255;48.716;9.124;2023-02-28T03:02:17;-2.50;99.90
2489;DHT22;1255;48.716;9.124;2023-02-28T03:04:51;-2.50;99.90
2489;DHT22;1255;48.716;9.124;2023-02-28T03:07:18;-2.50;99.90
2489;DHT22;1255;48.716;9.124;2023-02-28T03:09:50;-2.50;99.90
2489;DHT22;1255;48.716;9.124;2023-02-28T03:12:18;-2.40;99.90
2489;DHT22;1255;48.716;9.124;2023-02-28T03:14:54;-2.40;99.90
2489;DHT22;1255;48.716;9.124;2023-02-28T03:17:35;-2.50;99.90
2489;DHT22;1255;48.716;9.124;2023-02-28T03:20:15;-2.50;99.90
2489;DHT22;1255;48.716;9.124;2023-02-28T03:22:51;-2.50;99.90
2489;DHT22;1255;48.716;9.124;2023-02-28T03:25:22;-2.50;99.90
2489;DHT22;1255;48.716;9.124;2023-02-28T03:28:00;-2.50;99.90
2489;DHT22;1255;48.716;9.124;2023-02-28T03:30:32;-2.50;99.90
2489;DHT22;1255;48.716;9.124;2023-02-28T03:33:05;-2.50;99.90
2489;DHT22;1255;48.716;9.124;2023-02-28T03:35:36;-2.50;99.90
2489;DHT22;1255;48.716;9.124;2023-02-28T03:38:08;-2.50;99.90
2489;DHT22;1255;48.716;9.124;2023-02-28T03:40:44;-2.40;99.90
2489;DHT22;1255;48.716;9.124;2023-02-28T03:43:14;-2.40;99.90
2489;DHT22;1255;48.716;9.124;2023-02-28T03:45:45;-2.30;99.90
2489;DHT22;1255;48.716;9.124;2023-02-28T03:48:16;-2.30;99.90
2489;DHT22;1255;48.716;9.124;2023-02-28T03:50:49;-2.30;99.90
2489;DHT22;1255;48.716;9.124;2023-02-28T03:53:22;-2.30;99.90
2489;DHT22;1255;48.716;9.124;2023-02-28T03:55:55;-2.30;99.90
2489;DHT22;1255;48.716;9.124;2023-02-28T03:58:27;-2.20;99.90
2489;DHT22;1255;48.716;9.124;2023-02-28T04:01:00;-2.30;99.90
2489;DHT22;1255;48.716;9.124;2023-02-28T04:03:34;-2.20;99.90
2489;DHT22;1255;48.716;9.124;2023-02-28T04:06:02;-2.20;99.90
2489;DHT22;1255;48.716;9.124;2023-02-28T04:08:29;-2.20;99.90
2489;DHT22;1255;48.716;9.124;2023-02-28T04:11:00;-2.20;99.90
2489;DHT22;1255;48.716;9.124;2023-02-28T04:13:27;-2.20;99.90
2489;DHT22;1255;48.716;9.124;2023-02-28T04:15:54;-2.20;99.90
2489;DHT22;1255;48.716;9.124;2023-02-28T04:18:21;-2.10;99.90
2489;DHT22;1255;48.716;9.124;2023-02-28T04:20:47;-2.10;99.90
2489;DHT22;1255;48.716;9.124;2023-02-28T04:23:15;-2.10;99.90
2489;DHT22;1255;48.716;9.124;2023-02-28T04:25:42;-2.10;99.90
2489;DHT22;1255;48.716;9.124;2023-02-28T04:28:09;-2.10;99.90
2489;DHT22;1255;48.716;9.124;2023-02-28T04:30:37;-2.10;99.90
2489;DHT22;1255;48.716;9.124;2023-02-28T04:33:04;-1.90;99.90
2489;DHT22;1255;48.716;9.124;2023-02-28T04:35:31;-1.90;99.90
2489;DHT22;1255;48.716;9.124;2023-02-28T04:37:57;-1.80;99.90
2489;DHT22;1255;48.716;9.124;2023-02-28T04:40:26;-1.90;99.90
2489;DHT22;1255;48.716;9.124;2023-02-28T04:42:52;-1.90;99.90
2489;DHT22;1255;48.716;9.124;2023-02-28T04:45:19;-1.90;99.90
2489;DHT22;1255;48.716;9.124;2023-02-28T04:47:46;-1.90;99.90
2489;DHT22;1255;48.716;9.124;2023-02-28T04:50:12;-1.90;99.90
2489;DHT22;1255;48.716;9.124;2023-02-28T04:52:39;-1.90;99.90
2489;DHT22;1255;48.716;9.124;2023-02-28T04:55:06;-2.00;99.90
2489;DHT22;1255;48.716;9.124;2023-02-28T04:57:35;-2.00;99.90
2489;DHT22;1255;48.716;9.124;2023-02-28T05:00:03;-2.00;99.90
2489;DHT22;1255;48.716;9.124;2023-02-28T05:02:34;-1.90;99.90
2489;DHT22;1255;48.716;9.124;2023-02-28T05:05:00;-2.00;99.90
2489;DHT22;1255;48.716;9.124;2023-02-28T05:07:27;-2.00;99.90
2489;DHT22;1255;48.716;9.124;2023-02-28T05:09:54;-2.00;99.90
2489;DHT22;1255;48.716;9.124;2023-02-28T05:12:21;-2.00;99.90
2489;DHT22;1255;48.716;9.124;2023-02-28T05:14:49;-2.00;99.90
2489;DHT22;1255;48.716;9.124;2023-02-28T05:17:15;-2.00;99.90
2489;DHT22;1255;48.716;9.124;2023-02-28T05:19:42;-1.90;99.90
2489;DHT22;1255;48.716;9.124;2023-02-28T05:22:13;-2.00;99.90
2489;DHT22;1255;48.716;9.124;2023-02-28T05:24:40;-1.90;99.90
2489;DHT22;1255;48.716;9.124;2023-02-28T05:27:08;-1.90;99.90
2489;DHT22;1255;48.716;9.124;2023-02-28T05:29:34;-1.80;99.90
2489;DHT22;1255;48.716;9.124;2023-02-28T05:32:08;-1.80;99.90
2489;DHT22;1255;48.716;9.124;2023-02-28T05:34:36;-1.80;99.90
2489;DHT22;1255;48.716;9.124;2023-02-28T05:37:03;-1.80;99.90
2489;DHT22;1255;48.716;9.124;2023-02-28T05:39:29;-1.80;99.90
2489;DHT22;1255;48.716;9.124;2023-02-28T05:41:56;-1.80;99.90
2489;DHT22;1255;48.716;9.124;2023-02-28T05:44:23;-1.80;99.90
2489;DHT22;1255;48.716;9.124;2023-02-28T05:46:50;-1.80;99.90
2489;DHT22;1255;48.716;9.124;2023-02-28T05:49:18;-1.90;99.90
2489;DHT22;1255;48.716;9.124;2023-02-28T05:51:44;-1.90;99.90
2489;DHT22;1255;48.716;9.124;2023-02-28T05:54:11;-1.80;99.90
2489;DHT22;1255;48.716;9.124;2023-02-28T05:56:38;-1.80;99.90
2489;DHT22;1255;48.716;9.124;2023-02-28T05:59:06;-1.80;99.90
2489;DHT22;1255;48.716;9.124;2023-02-28T06:01:34;-1.80;99.90
2489;DHT22;1255;48.716;9.124;2023-02-28T06:04:02;-1.80;99.90
2489;DHT22;1255;48.716;9.124;2023-02-28T06:06:32;-1.80;99.90
2489;DHT22;1255;48.716;9.124;2023-02-28T06:09:00;-1.80;99.90
2489;DHT22;1255;48.716;9.124;2023-02-28T06:11:27;-1.80;99.90
2489;DHT22;1255;48.716;9.124;2023-02-28T06:13:54;-1.80;99.90
2489;DHT22;1255;48.716;9.124;2023-02-28T06:16:22;-1.80;99.90
2489;DHT22;1255;48.716;9.124;2023-02-28T06:18:48;-1.80;99.90
2489;DHT22;1255;48.716;9.124;2023-02-28T06:21:15;-1.80;99.90
2489;DHT22;1255;48.716;9.124;2023-02-28T06:23:43;-1.80;99.90
2489;DHT22;1255;48.716;9.124;2023-02-28T06:26:10;-1.80;99.90
2489;DHT22;1255;48.716;9.124;2023-02-28T06:28:37;-1.70;99.90
2489;DHT22;1255;48.716;9.124;2023-02-28T06:31:07;-1.70;99.90
2489;DHT22;1255;48.716;9.124;2023-02-28T06:33:35;-1.70;99.90
2489;DHT22;1255;48.716;9.124;2023-02-28T06:36:02;-1.80;99.90
2489;DHT22;1255;48.716;9.124;2023-02-28T06:38:28;-1.80;99.90
2489;DHT22;1255;48.716;9.124;2023-02-28T06:40:58;-1.70;99.90
2489;DHT22;1255;48.716;9.124;2023-02-28T06:43:26;-1.70;99.90
2489;DHT22;1255;48.716;9.124;2023-02-28T06:45:54;-1.70;99.90
2489;DHT22;1255;48.716;9.124;2023-02-28T06:48:22;-1.70;99.90
2489;DHT22;1255;48.716;9.124;2023-02-28T06:50:50;-1.70;99.90
2489;DHT22;1255;48.716;9.124;2023-02-28T06:53:17;-1.70;99.90
2489;DHT22;1255;48.716;9.124;2023-02-28T06:55:45;-1.70;99.90
2489;DHT22;1255;48.716;9.124;2023-02-28T06:58:13;-1.70;99.90
2489;DHT22;1255;48.716;9.124;2023-02-28T07:00:44;-1.70;99.90
2489;DHT22;1255;48.716;9.124;2023-02-28T07:03:12;-1.60;99.90
2489;DHT22;1255;48.716;9.124;2023-02-28T07:05:41;-1.60;99.90
2489;DHT22;1255;48.716;9.124;2023-02-28T07:08:09;-1.60;99.90
2489;DHT22;1255;48.716;9.124;2023-02-28T07:10:37;-1.70;99.90
2489;DHT22;1255;48.716;9.124;2023-02-28T07:13:06;-1.60;99.90
2489;DHT22;1255;48.716;9.124;2023-02-28T07:15:35;-1.60;99.90
2489;DHT22;1255;48.716;9.124;2023-02-28T07:18:03;-1.60;99.90
2489;DHT22;1255;48.716;9.124;2023-02-28T07:20:31;-1.50;99.90
2489;DHT22;1255;48.716;9.124;2023-02-28T07:22:58;-1.50;99.90
2489;DHT22;1255;48.716;9.124;2023-02-28T07:25:27;-1.50;99.90
2489;DHT22;1255;48.716;9.124;2023-02-28T07:27:55;-1.50;99.90
2489;DHT22;1255;48.716;9.124;2023-02-28T07:30:24;-1.40;99.90
2489;DHT22;1255;48.716;9.124;2023-02-28T07:32:53;-1.40;99.90
2489;DHT22;1255;48.716;9.124;2023-02-28T07:35:21;-1.40;99.90
2489;DHT22;1255;48.716;9.124;2023-02-28T07:37:49;-1.40;99.90
2489;DHT22;1255;48.716;9.124;2023-02-28T07:40:17;-1.40;99.90
2489;DHT22;1255;48.716;9.124;2023-02-28T07:42:45;-1.40;99.90
2489;DHT22;1255;48.716;9.124;2023-02-28T07:45:12;-1.30;99.90
2489;DHT22;1255;48.716;9.124;2023-02-28T07:47:41;-1.30;99.90
2489;DHT22;1255;48.716;9.124;2023-02-28T07:50:12;-1.20;99.90
2489;DHT22;1255;48.716;9.124;2023-02-28T07:52:40;-1.20;99.90
2489;DHT22;1255;48.716;9.124;2023-02-28T07:55:09;-1.20;99.90
2489;DHT22;1255;48.716;9.124;2023-02-28T07:57:36;-1.20;99.90
2489;DHT22;1255;48.716;9.124;2023-02-28T08:00:05;-1.20;99.90
2489;DHT22;1255;48.716;9.124;2023-02-28T08:02:33;-1.20;99.90
2489;DHT22;1255;48.716;9.124;2023-02-28T08:05:01;-1.10;99.90
2489;DHT22;1255;48.716;9.124;2023-02-28T08:07:30;-1.10;99.90
2489;DHT22;1255;48.716;9.124;2023-02-28T08:09:58;-1.00;99.90
2489;DHT22;1255;48.716;9.124;2023-02-28T08:12:26;-1.00;99.90
2489;DHT22;1255;48.716;9.124;2023-02-28T08:14:53;-1.00;99.90
2489;DHT22;1255;48.716;9.124;2023-02-28T08:17:20;-1.00;99.90
2489;DHT22;1255;48.716;9.124;2023-02-28T08:19:48;-1.00;99.90
2489;DHT22;1255;48.716;9.124;2023-02-28T08:22:15;-1.00;99.90
2489;DHT22;1255;48.716;9.124;2023-02-28T08:24:44;-0.90;99.90
2489;DHT22;1255;48.716;9.124;2023-02-28T08:27:12;-0.90;99.90
2489;DHT22;1255;48.716;9.124;2023-02-28T08:29:40;-0.90;99.90
2489;DHT22;1255;48.716;9.124;2023-02-28T08:32:07;-0.80;99.90
2489;DHT22;1255;48.716;9.124;2023-02-28T08:34:35;-0.80;99.90
2489;DHT22;1255;48.716;9.124;2023-02-28T08:37:03;-0.80;99.90
2489;DHT22;1255;48.716;9.124;2023-02-28T08:39:30;-0.80;99.90
2489;DHT22;1255;48.716;9.124;2023-02-28T08:42:02;-0.70;99.90
2489;DHT22;1255;48.716;9.124;2023-02-28T08:44:30;-0.70;99.90
2489;DHT22;1255;48.716;9.124;2023-02-28T08:46:57;-0.70;99.90
2489;DHT22;1255;48.716;9.124;2023-02-28T08:49:26;-0.70;99.90
2489;DHT22;1255;48.716;9.124;2023-02-28T08:51:54;-0.70;99.90
2489;DHT22;1255;48.716;9.124;2023-02-28T08:54:23;-0.70;99.90
2489;DHT22;1255;48.716;9.124;2023-02-28T08:56:50;-0.60;99.90
2489;DHT22;1255;48.716;9.124;2023-02-28T08:59:19;-0.70;99.90
2489;DHT22;1255;48.716;9.124;2023-02-28T09:01:47;-0.60;99.90
2489;DHT22;1255;48.716;9.124;2023-02-28T09:04:14;-0.60;99.90
2489;DHT22;1255;48.716;9.124;2023-02-28T09:06:41;-0.50;99.90
2489;DHT22;1255;48.716;9.124;2023-02-28T09:09:10;-0.50;99.90
2489;DHT22;1255;48.716;9.124;2023-02-28T09:11:37;-0.40;99.90
2489;DHT22;1255;48.716;9.124;2023-02-28T09:14:04;-0.40;99.90
2489;DHT22;1255;48.716;9.124;2023-02-28T09:16:34;-0.40;99.90
2489;DHT22;1255;48.716;9.124;2023-02-28T09:19:01;-0.40;99.90
2489;DHT22;1255;48.716;9.124;2023-02-28T09:21:28;-0.50;99.90
2489;DHT22;1255;48.716;9.124;2023-02-28T09:23:55;-0.40;99.90
2489;DHT22;1255;48.716;9.124;2023-02-28T09:26:23;-0.30;99.90
2489;DHT22;1255;48.716;9.124;2023-02-28T09:28:51;-0.30;99.90
2489;DHT22;1255;48.716;9.124;2023-02-28T09:31:20;-0.30;99.90
2489;DHT22;1255;48.716;9.124;2023-02-28T09:33:48;-0.30;99.90
2489;DHT22;1255;48.716;9.124;2023-02-28T09:36:16;-0.20;99.90
2489;DHT22;1255;48.716;9.124;2023-02-28T09:38:43;-0.10;99.90
2489;DHT22;1255;48.716;9.124;2023-02-28T09:41:13;0.00;99.90
2489;DHT22;1255;48.716;9.124;2023-02-28T09:43:44;-0.10;99.90
2489;DHT22;1255;48.716;9.124;2023-02-28T09:46:24;-0.10;99.90
2489;DHT22;1255;48.716;9.124;2023-02-28T09:48:54;-0.20;99.90
2489;DHT22;1255;48.716;9.124;2023-02-28T09:51:36;-0.20;99.90
2489;DHT22;1255;48.716;9.124;2023-02-28T09:54:06;-0.10;99.90
2489;DHT22;1255;48.716;9.124;2023-02-28T09:56:37;-0.10;99.90
2489;DHT22;1255;48.716;9.124;2023-02-28T09:59:12;-0.10;99.90
2489;DHT22;1255;48.716;9.124;2023-02-28T10:01:45;0.00;99.90
2489;DHT22;1255;48.716;9.124;2023-02-28T10:04:33;0.00;99.90
2489;DHT22;1255;48.716;9.124;2023-02-28T10:07:06;0.20;99.90
2489;DHT22;1255;48.716;9.124;2023-02-28T10:09:44;0.30;99.90
2489;DHT22;1255;48.716;9.124;2023-02-28T10:12:12;0.50;99.90
2489;DHT22;1255;48.716;9.124;2023-02-28T10:14:44;0.60;99.90
2489;DHT22;1255;48.716;9.124;2023-02-28T10:17:16;0.60;99.90
2489;DHT22;1255;48.716;9.124;2023-02-28T10:19:53;0.50;99.90
2489;DHT22;1255;48.716;9.124;2023-02-28T10:22:25;0.70;99.90
2489;DHT22;1255;48.716;9.124;2023-02-28T10:24:55;0.80;99.90
2489;DHT22;1255;48.716;9.124;2023-02-28T10:27:30;0.80;99.90
2489;DHT22;1255;48.716;9.124;2023-02-28T10:30:00;1.00;99.90
2489;DHT22;1255;48.716;9.124;2023-02-28T10:32:31;1.20;99.90
2489;DHT22;1255;48.716;9.124;2023-02-28T10:35:10;1.30;99.80
2489;DHT22;1255;48.716;9.124;2023-02-28T10:37:42;1.30;99.70
2489;DHT22;1255;48.716;9.124;2023-02-28T10:40:28;1.30;99.30
2489;DHT22;1255;48.716;9.124;2023-02-28T10:42:56;1.30;98.90
2489;DHT22;1255;48.716;9.124;2023-02-28T10:45:25;1.50;98.70
2489;DHT22;1255;48.716;9.124;2023-02-28T10:47:55;2.00;99.00
2489;DHT22;1255;48.716;9.124;2023-02-28T10:50:37;3.20;98.00
2489;DHT22;1255;48.716;9.124;2023-02-28T10:53:15;4.70;97.40
2489;DHT22;1255;48.716;9.124;2023-02-28T10:55:58;6.50;94.40
2489;DHT22;1255;48.716;9.124;2023-02-28T10:58:28;7.40;92.10
2489;DHT22;1255;48.716;9.124;2023-02-28T11:01:00;7.50;91.00
2489;DHT22;1255;48.716;9.124;2023-02-28T11:03:35;8.40;91.00
2489;DHT22;1255;48.716;9.124;2023-02-28T11:06:08;9.90;87.00
2489;DHT22;1255;48.716;9.124;2023-02-28T11:08:55;11.00;82.60
2489;DHT22;1255;48.716;9.124;2023-02-28T11:11:24;11.20;80.70
2489;DHT22;1255;48.716;9.124;2023-02-28T11:13:53;11.00;79.80
2489;DHT22;1255;48.716;9.124;2023-02-28T11:16:21;10.50;81.30
2489;DHT22;1255;48.716;9.124;2023-02-28T11:18:50;10.80;81.50
2489;DHT22;1255;48.716;9.124;2023-02-28T11:21:23;11.50;78.30
2489;DHT22;1255;48.716;9.124;2023-02-28T11:23:53;11.70;78.30
2489;DHT22;1255;48.716;9.124;2023-02-28T11:26:43;12.10;78.90
2489;DHT22;1255;48.716;9.124;2023-02-28T11:29:15;12.40;78.70
2489;DHT22;1255;48.716;9.124;2023-02-28T11:32:04;12.00;77.80
2489;DHT22;1255;48.716;9.124;2023-02-28T11:34:35;12.30;79.00
2489;DHT22;1255;48.716;9.124;2023-02-28T11:37:08;12.70;76.80
2489;DHT22;1255;48.716;9.124;2023-02-28T11:39:37;12.40;76.40
2489;DHT22;1255;48.716;9.124;2023-02-28T11:42:21;12.00;75.90
2489;DHT22;1255;48.716;9.124;2023-02-28T11:45:07;10.80;77.50
2489;DHT22;1255;48.716;9.124;2023-02-28T11:47:47;10.00;79.20
2489;DHT22;1255;48.716;9.124;2023-02-28T11:50:25;9.10;80.60
2489;DHT22;1255;48.716;9.124;2023-02-28T11:52:56;8.40;82.90
2489;DHT22;1255;48.716;9.124;2023-02-28T11:55:26;8.00;83.70
2489;DHT22;1255;48.716;9.124;2023-02-28T11:58:05;7.60;84.80
2489;DHT22;1255;48.716;9.124;2023-02-28T12:00:44;7.50;84.90
2489;DHT22;1255;48.716;9.124;2023-02-28T12:03:23;7.60;85.30
2489;DHT22;1255;48.716;9.124;2023-02-28T12:06:01;8.10;83.20
2489;DHT22;1255;48.716;9.124;2023-02-28T12:08:45;8.40;84.60
2489;DHT22;1255;48.716;9.124;2023-02-28T12:11:19;9.40;82.80
2489;DHT22;1255;48.716;9.124;2023-02-28T12:13:58;10.60;79.00
2489;DHT22;1255;48.716;9.124;2023-02-28T12:16:44;11.50;78.20
2489;DHT22;1255;48.716;9.124;2023-02-28T12:19:19;11.60;75.50
2489;DHT22;1255;48.716;9.124;2023-02-28T12:22:20;11.50;77.40
2489;DHT22;1255;48.716;9.124;2023-02-28T12:24:59;12.30;76.40
2489;DHT22;1255;48.716;9.124;2023-02-28T12:27:31;13.20;74.40
2489;DHT22;1255;48.716;9.124;2023-02-28T12:30:03;14.20;73.50
2489;DHT22;1255;48.716;9.124;2023-02-28T12:32:34;15.00;72.10
2489;DHT22;1255;48.716;9.124;2023-02-28T12:35:11;15.10;70.10
2489;DHT22;1255;48.716;9.124;2023-02-28T12:37:41;13.50;70.30
2489;DHT22;1255;48.716;9.124;2023-02-28T12:40:15;12.50;72.70
2489;DHT22;1255;48.716;9.124;2023-02-28T12:42:46;11.70;74.00
2489;DHT22;1255;48.716;9.124;2023-02-28T12:45:18;11.40;74.30
2489;DHT22;1255;48.716;9.124;2023-02-28T12:47:49;11.80;75.10
2489;DHT22;1255;48.716;9.124;2023-02-28T12:50:18;12.50;72.80
2489;DHT22;1255;48.716;9.124;2023-02-28T12:52:53;13.20;71.80
2489;DHT22;1255;48.716;9.124;2023-02-28T12:55:30;14.10;70.30
2489;DHT22;1255;48.716;9.124;2023-02-28T12:58:05;14.60;67.70
2489;DHT22;1255;48.716;9.124;2023-02-28T13:00:37;15.00;69.30
2489;DHT22;1255;48.716;9.124;2023-02-28T13:03:33;14.20;69.70
2489;DHT22;1255;48.716;9.124;2023-02-28T13:06:34;13.40;69.90
2489;DHT22;1255;48.716;9.124;2023-02-28T13:09:08;13.60;71.60
2489;DHT22;1255;48.716;9.124;2023-02-28T13:11:43;14.50;69.80
2489;DHT22;1255;48.716;9.124;2023-02-28T13:14:24;15.10;68.50
2489;DHT22;1255;48.716;9.124;2023-02-28T13:17:01;15.00;68.50
2489;DHT22;1255;48.716;9.124;2023-02-28T13:19:30;14.50;68.70
2489;DHT22;1255;48.716;9.124;2023-02-28T13:21:59;13.80;68.70
2489;DHT22;1255;48.716;9.124;2023-02-28T13:24:42;13.40;69.20
2489;DHT22;1255;48.716;9.124;2023-02-28T13:27:38;13.50;70.20
2489;DHT22;1255;48.716;9.124;2023-02-28T13:33:25;13.40;69.50
2489;DHT22;1255;48.716;9.124;2023-02-28T13:36:07;13.50;68.90
2489;DHT22;1255;48.716;9.124;2023-02-28T13:38:38;13.10;70.20
2489;DHT22;1255;48.716;9.124;2023-02-28T13:41:40;13.00;69.70
2489;DHT22;1255;48.716;9.124;2023-02-28T13:44:10;11.70;71.40
2489;DHT22;1255;48.716;9.124;2023-02-28T13:49:42;11.60;72.30
2489;DHT22;1255;48.716;9.124;2023-02-28T13:52:15;11.80;72.00
2489;DHT22;1255;48.716;9.124;2023-02-28T13:54:58;12.10;73.80
2489;DHT22;1255;48.716;9.124;2023-02-28T13:57:40;12.50;71.60
2489;DHT22;1255;48.716;9.124;2023-02-28T14:00:22;12.50;72.50
2489;DHT22;1255;48.716;9.124;2023-02-28T14:03:06;12.60;71.70
2489;DHT22;1255;48.716;9.124;2023-02-28T14:05:36;12.60;71.20
2489;DHT22;1255;48.716;9.124;2023-02-28T14:08:06;12.30;70.90
2489;DHT22;1255;48.716;9.124;2023-02-28T14:10:44;12.10;71.80
2489;DHT22;1255;48.716;9.124;2023-02-28T14:15:59;12.20;72.00
2489;DHT22;1255;48.716;9.124;2023-02-28T14:18:29;12.00;72.10
2489;DHT22;1255;48.716;9.124;2023-02-28T14:21:21;11.90;72.20
2489;DHT22;1255;48.716;9.124;2023-02-28T14:24:13;11.60;73.30
2489;DHT22;1255;48.716;9.124;2023-02-28T14:27:13;11.70;72.30
2489;DHT22;1255;48.716;9.124;2023-02-28T14:30:15;11.80;72.00
2489;DHT22;1255;48.716;9.124;2023-02-28T14:32:54;11.90;72.90
2489;DHT22;1255;48.716;9.124;2023-02-28T14:35:43;11.80;71.40
2489;DHT22;1255;48.716;9.124;2023-02-28T14:38:17;11.40;73.50
2489;DHT22;1255;48.716;9.124;2023-02-28T14:40:48;11.50;72.70
2489;DHT22;1255;48.716;9.124;2023-02-28T14:43:20;11.40;72.70
2489;DHT22;1255;48.716;9.124;2023-02-28T14:45:50;11.10;72.80
2489;DHT22;1255;48.716;9.124;2023-02-28T14:48:20;11.00;73.40
2489;DHT22;1255;48.716;9.124;2023-02-28T14:50:52;11.20;74.10
2489;DHT22;1255;48.716;9.124;2023-02-28T14:53:21;10.90;73.30
2489;DHT22;1255;48.716;9.124;2023-02-28T14:55:49;10.70;74.20
2489;DHT22;1255;48.716;9.124;2023-02-28T14:58:25;10.70;74.10
2489;DHT22;1255;48.716;9.124;2023-02-28T15:00:53;10.60;74.10
2489;DHT22;1255;48.716;9.124;2023-02-28T15:03:23;10.50;74.80
2489;DHT22;1255;48.716;9.124;2023-02-28T15:05:54;10.10;74.20
2489;DHT22;1255;48.716;9.124;2023-02-28T15:08:23;9.90;76.60
2489;DHT22;1255;48.716;9.124;2023-02-28T15:10:55;9.90;77.50
2489;DHT22;1255;48.716;9.124;2023-02-28T15:13:23;10.00;76.40
2489;DHT22;1255;48.716;9.124;2023-02-28T15:15:53;9.50;77.10
2489;DHT22;1255;48.716;9.124;2023-02-28T15:18:30;9.40;78.00
2489;DHT22;1255;48.716;9.124;2023-02-28T15:21:01;9.40;77.40
2489;DHT22;1255;48.716;9.124;2023-02-28T15:23:29;9.50;78.70
2489;DHT22;1255;48.716;9.124;2023-02-28T15:25:56;9.40;77.50
2489;DHT22;1255;48.716;9.124;2023-02-28T15:28:24;9.30;77.90
2489;DHT22;1255;48.716;9.124;2023-02-28T15:30:53;9.00;78.30
2489;DHT22;1255;48.716;9.124;2023-02-28T15:33:22;8.70;78.50
2489;DHT22;1255;48.716;9.124;2023-02-28T15:35:51;8.30;79.20
2489;DHT22;1255;48.716;9.124;2023-02-28T15:38:22;8.20;81.00
2489;DHT22;1255;48.716;9.124;2023-02-28T15:40:51;8.10;80.20
2489;DHT22;1255;48.716;9.124;2023-02-28T15:43:24;8.00;80.80
2489;DHT22;1255;48.716;9.124;2023-02-28T15:45:56;8.10;81.00
2489;DHT22;1255;48.716;9.124;2023-02-28T15:48:26;7.90;80.20
2489;DHT22;1255;48.716;9.124;2023-02-28T15:50:56;7.50;81.10
2489;DHT22;1255;48.716;9.124;2023-02-28T15:53:25;7.30;81.40
2489;DHT22;1255;48.716;9.124;2023-02-28T15:55:58;7.10;82.40
2489;DHT22;1255;48.716;9.124;2023-02-28T15:58:25;6.90;82.70
2489;DHT22;1255;48.716;9.124;2023-02-28T16:01:06;6.70;83.50
2489;DHT22;1255;48.716;9.124;2023-02-28T16:03:40;6.50;83.60
2489;DHT22;1255;48.716;9.124;2023-02-28T16:06:37;6.20;84.40
2489;DHT22;1255;48.716;9.124;2023-02-28T16:09:06;6.00;84.90
2489;DHT22;1255;48.716;9.124;2023-02-28T16:11:36;5.80;85.80
2489;DHT22;1255;48.716;9.124;2023-02-28T16:14:04;5.60;86.20
2489;DHT22;1255;48.716;9.124;2023-02-28T16:16:31;5.50;86.60
2489;DHT22;1255;48.716;9.124;2023-02-28T16:18:58;5.20;87.50
2489;DHT22;1255;48.716;9.124;2023-02-28T16:21:25;5.10;87.70
2489;DHT22;1255;48.716;9.124;2023-02-28T16:23:53;5.00;88.40
2489;DHT22;1255;48.716;9.124;2023-02-28T16:26:22;4.80;89.00
2489;DHT22;1255;48.716;9.124;2023-02-28T16:28:51;4.70;89.70
2489;DHT22;1255;48.716;9.124;2023-02-28T16:31:18;4.70;89.70
2489;DHT22;1255;48.716;9.124;2023-02-28T16:33:45;4.60;89.90
2489;DHT22;1255;48.716;9.124;2023-02-28T16:36:18;4.40;90.20
2489;DHT22;1255;48.716;9.124;2023-02-28T16:38:45;4.30;90.20
2489;DHT22;1255;48.716;9.124;2023-02-28T16:41:19;4.30;90.50
2489;DHT22;1255;48.716;9.124;2023-02-28T16:43:48;4.20;90.70
2489;DHT22;1255;48.716;9.124;2023-02-28T16:46:16;4.10;90.80